createdAt,value
2022-10-03T00:02:28.042Z,13.12
2022-10-03T00:05:23.768Z,13.18
2022-10-03T00:07:53.449Z,13.03
2022-10-03T00:10:26.045Z,12.88
2022-10-03T00:13:14.019Z,12.64
2022-10-03T00:15:54.621Z,12.82
2022-10-03T00:18:57.847Z,13.03
2022-10-03T00:21:39.357Z,13.09
2022-10-03T00:24:25.902Z,13.05
2022-10-03T00:27:12.738Z,13.25
2022-10-03T00:29:39.302Z,13.25
2022-10-03T00:32:24.403Z,13.30
2022-10-03T00:34:51.054Z,13.44
2022-10-03T00:37:25.231Z,13.39
2022-10-03T00:40:12.176Z,13.31
2022-10-03T00:42:57.379Z,13.39
2022-10-03T00:45:45.898Z,13.43
2022-10-03T00:48:48.121Z,13.36
2022-10-03T00:51:20.704Z,13.38
2022-10-03T00:54:01.368Z,13.19
2022-10-03T00:56:52.685Z,13.18
2022-10-03T00:59:47.442Z,13.37
2022-10-03T01:02:39.685Z,13.15
2022-10-03T01:05:34.602Z,13.34
2022-10-03T01:08:35.023Z,13.41
2022-10-03T01:11:13.671Z,13.40
2022-10-03T01:14:07.439Z,13.01
2022-10-03T01:16:43.011Z,13.23
2022-10-03T01:19:32.284Z,13.02
2022-10-03T01:22:20.713Z,13.08
2022-10-03T01:24:59.814Z,12.98
2022-10-03T01:27:32.699Z,12.40
2022-10-03T01:30:23.405Z,12.55
2022-10-03T01:33:03.618Z,12.53
2022-10-03T01:35:37.467Z,12.54
2022-10-03T01:38:18.242Z,12.63
2022-10-03T01:40:57.562Z,12.68
2022-10-03T01:43:47.691Z,12.75
2022-10-03T01:46:31.845Z,12.63
2022-10-03T01:49:25.944Z,12.67
2022-10-03T01:52:01.981Z,12.80
2022-10-03T01:54:33.960Z,12.69
2022-10-03T01:57:11.177Z,12.52
2022-10-03T01:59:59.038Z,12.67
2022-10-03T02:02:34.651Z,12.73
2022-10-03T02:05:13.058Z,12.58
2022-10-03T02:07:56.339Z,12.62
2022-10-03T02:10:24.673Z,12.51
2022-10-03T02:13:13.836Z,12.51
2022-10-03T02:16:21.177Z,12.55
2022-10-03T02:19:03.688Z,12.20
2022-10-03T02:21:33.123Z,12.14
2022-10-03T02:24:38.455Z,12.15
2022-10-03T02:27:46.770Z,12.21
2022-10-03T02:30:51.732Z,12.11
2022-10-03T02:33:34.227Z,12.12
2022-10-03T02:36:30.365Z,12.08
2022-10-03T02:39:06.890Z,11.90
2022-10-03T02:41:40.031Z,11.99
2022-10-03T02:44:09.742Z,12.06
2022-10-03T02:47:04.507Z,11.89
2022-10-03T02:49:59.152Z,11.88
2022-10-03T02:52:49.587Z,11.76
2022-10-03T02:55:44.196Z,11.70
2022-10-03T02:58:11.471Z,11.49
2022-10-03T03:00:54.198Z,11.20
2022-10-03T03:03:44.594Z,10.88
2022-10-03T03:06:39.400Z,11.39
2022-10-03T03:09:49.114Z,11.19
2022-10-03T03:12:52.161Z,11.27
2022-10-03T03:15:50.854Z,11.37
2022-10-03T03:19:02.971Z,11.11
2022-10-03T03:21:51.403Z,11.09
2022-10-03T03:24:31.658Z,10.90
2022-10-03T03:27:19.679Z,11.12
2022-10-03T03:30:11.797Z,11.01
2022-10-03T03:33:05.674Z,10.82
2022-10-03T03:36:07.836Z,10.78
2022-10-03T03:38:53.399Z,10.84
2022-10-03T03:41:53.919Z,10.81
2022-10-03T03:45:10.192Z,10.91
2022-10-03T03:47:49.223Z,10.80
2022-10-03T03:50:24.964Z,10.60
2022-10-03T03:52:58.215Z,10.52
2022-10-03T03:55:27.759Z,10.83
2022-10-03T03:58:18.089Z,10.75
2022-10-03T04:00:53.690Z,10.79
2022-10-03T04:03:44.860Z,10.76
2022-10-03T04:06:35.753Z,10.57
2022-10-03T04:09:30.455Z,10.23
2022-10-03T04:12:12.899Z,10.28
2022-10-03T04:14:54.935Z,10.59
2022-10-03T04:18:05.511Z,10.36
2022-10-03T04:20:56.691Z,10.63
2022-10-03T04:23:50.139Z,10.51
2022-10-03T04:27:04.345Z,10.48
2022-10-03T04:30:08.536Z,10.51
2022-10-03T04:33:13.667Z,10.41
2022-10-03T04:36:14.387Z,10.42
2022-10-03T04:39:06.063Z,10.39
2022-10-03T04:41:46.139Z,10.16
2022-10-03T04:44:19.718Z,10.29
2022-10-03T04:46:57.535Z,10.20
2022-10-03T04:49:52.479Z,9.95
2022-10-03T04:52:28.423Z,10.15
2022-10-03T04:55:10.231Z,10.30
2022-10-03T04:57:58.701Z,10.09
2022-10-03T05:01:19.129Z,10.24
2022-10-03T05:04:06.904Z,10.15
2022-10-03T05:07:14.630Z,10.29
2022-10-03T05:10:04.487Z,10.31
2022-10-03T05:12:48.183Z,10.40
2022-10-03T05:15:29.845Z,10.44
2022-10-03T05:18:24.638Z,10.37
2022-10-03T05:21:13.357Z,10.27
2022-10-03T05:24:04.978Z,10.31
2022-10-03T05:26:45.555Z,10.48
2022-10-03T05:29:25.446Z,10.41
2022-10-03T05:32:14.198Z,10.50
2022-10-03T05:35:12.736Z,10.59
2022-10-03T05:37:54.492Z,10.65
2022-10-03T05:40:25.346Z,10.60
2022-10-03T05:42:55.739Z,10.75
2022-10-03T05:45:49.189Z,10.81
2022-10-03T05:48:33.880Z,10.78
2022-10-03T05:51:09.229Z,10.77
2022-10-03T05:53:57.708Z,10.82
2022-10-03T05:57:03.383Z,10.77
2022-10-03T05:59:51.631Z,10.84
2022-10-03T06:02:59.353Z,10.74
2022-10-03T06:05:53.920Z,10.79
2022-10-03T06:08:42.217Z,10.88
2022-10-03T06:11:40.362Z,10.87
2022-10-03T06:14:25.830Z,10.87
2022-10-03T06:17:01.727Z,10.87
2022-10-03T06:20:03.538Z,10.92
2022-10-03T06:23:06.649Z,10.94
2022-10-03T06:25:42.579Z,11.06
2022-10-03T06:28:28.273Z,11.01
2022-10-03T06:31:44.353Z,11.01
2022-10-03T06:34:31.545Z,10.76
2022-10-03T06:37:01.380Z,10.69
2022-10-03T06:39:49.434Z,11.06
2022-10-03T06:42:25.182Z,11.05
2022-10-03T06:45:00.867Z,11.10
2022-10-03T06:47:47.852Z,11.08
2022-10-03T06:50:19.192Z,11.06
2022-10-03T06:53:23.996Z,11.12
2022-10-03T06:56:10.184Z,11.12
2022-10-03T06:59:14.524Z,11.29
2022-10-03T07:01:55.139Z,11.28
2022-10-03T07:04:45.924Z,11.40
2022-10-03T07:07:31.272Z,11.37
2022-10-03T07:10:19.856Z,11.40
2022-10-03T07:31:04.916Z,12.26
2022-10-03T07:33:39.333Z,12.31
2022-10-03T07:36:28.113Z,12.46
2022-10-03T08:09:23.433Z,12.73
2022-10-03T08:12:20.813Z,12.64
2022-10-03T08:15:08.169Z,12.78
2022-10-03T08:18:09.369Z,12.89
2022-10-03T08:20:56.233Z,12.91
2022-10-03T08:24:05.304Z,13.24
2022-10-03T08:27:14.680Z,13.32
2022-10-03T08:29:56.593Z,13.47
2022-10-03T08:32:48.876Z,13.35
2022-10-03T08:35:36.628Z,13.53
2022-10-03T08:44:30.214Z,13.33
2022-10-03T08:47:27.143Z,13.47
2022-10-03T09:02:17.660Z,13.25
2022-10-03T09:05:20.750Z,13.91
2022-10-03T09:46:31.490Z,14.16
2022-10-03T09:58:25.329Z,14.39
2022-10-03T10:01:06.430Z,14.61
2022-10-03T10:07:19.405Z,14.48
2022-10-03T10:16:54.938Z,14.72
2022-10-03T10:57:12.123Z,14.85
2022-10-03T10:59:54.157Z,15.10
2022-10-03T11:02:36.245Z,15.20
2022-10-03T11:12:12.343Z,15.38
2022-10-03T11:18:39.974Z,15.36
2022-10-03T11:21:40.981Z,15.44
2022-10-03T11:24:45.264Z,15.39
2022-10-03T11:27:24.102Z,15.44
2022-10-03T11:30:11.099Z,15.44
2022-10-03T11:32:40.735Z,15.44
2022-10-03T11:35:43.889Z,15.58
2022-10-03T11:38:20.070Z,15.79
2022-10-03T11:41:36.933Z,15.45
2022-10-03T11:44:30.513Z,15.23
2022-10-03T11:47:06.096Z,15.65
2022-10-03T11:49:54.979Z,15.70
2022-10-03T11:52:46.569Z,15.82
2022-10-03T11:55:34.169Z,15.72
2022-10-03T11:58:11.636Z,15.92
2022-10-03T12:03:32.442Z,15.74
2022-10-03T13:09:27.790Z,15.14
2022-10-03T13:12:24.151Z,15.47
2022-10-03T13:15:19.821Z,15.34
2022-10-03T13:18:05.359Z,15.79
2022-10-03T13:20:37.295Z,15.38
2022-10-03T13:23:12.230Z,15.41
2022-10-03T13:25:48.584Z,15.37
2022-10-03T13:28:18.817Z,15.40
2022-10-03T13:30:54.211Z,15.28
2022-10-03T13:33:32.374Z,15.23
2022-10-03T13:42:21.586Z,15.23
2022-10-03T13:53:49.026Z,15.29
2022-10-03T13:56:34.149Z,15.24
2022-10-03T13:59:47.468Z,15.23
2022-10-03T14:02:42.124Z,15.37
2022-10-03T14:05:27.581Z,15.31
2022-10-03T14:07:55.449Z,15.15
2022-10-03T14:11:09.956Z,15.35
2022-10-03T14:13:48.579Z,15.56
2022-10-03T14:16:15.462Z,15.31
2022-10-03T14:19:07.542Z,15.33
2022-10-03T14:21:51.110Z,15.24
2022-10-03T14:24:27.268Z,15.38
2022-10-03T14:27:14.902Z,15.08
2022-10-03T14:30:08.037Z,14.34
2022-10-03T14:32:50.680Z,14.81
2022-10-03T14:35:27.776Z,15.17
2022-10-03T14:38:23.063Z,14.99
2022-10-03T14:40:59.674Z,14.54
2022-10-03T14:43:41.481Z,14.75
2022-10-03T14:46:15.319Z,14.85
2022-10-03T14:51:56.643Z,14.63
2022-10-03T14:54:26.135Z,14.63
2022-10-03T14:56:54.743Z,14.42
2022-10-03T14:59:26.670Z,14.66
2022-10-03T15:01:56.594Z,14.61
2022-10-03T15:04:30.308Z,14.63
2022-10-03T15:07:03.961Z,14.53
2022-10-03T15:09:37.750Z,14.30
2022-10-03T15:12:15.081Z,14.54
2022-10-03T15:14:47.541Z,14.12
2022-10-03T15:17:24.593Z,14.34
2022-10-03T15:22:43.224Z,14.37
2022-10-03T15:36:28.578Z,14.19
2022-10-03T15:39:11.314Z,14.09
2022-10-03T15:59:32.908Z,13.97
2022-10-03T16:22:39.806Z,14.14
2022-10-03T16:33:58.379Z,13.63
2022-10-03T17:10:46.353Z,13.28
2022-10-03T17:51:33.544Z,13.65
2022-10-03T17:54:14.428Z,13.57
2022-10-03T18:02:24.987Z,13.53
2022-10-03T18:16:28.524Z,13.63
2022-10-03T18:48:19.223Z,13.35
2022-10-03T18:56:26.522Z,13.00
2022-10-03T18:59:31.299Z,12.91
2022-10-03T19:02:04.213Z,13.58
2022-10-03T19:33:49.053Z,13.59
2022-10-03T20:07:51.976Z,13.96
2022-10-03T20:10:41.808Z,13.91
2022-10-03T20:13:10.281Z,14.05
2022-10-03T20:15:50.656Z,13.80
2022-10-03T20:18:24.996Z,13.88
2022-10-03T20:20:55.074Z,13.76
2022-10-03T20:23:24.759Z,13.61
2022-10-03T20:26:12.795Z,13.49
2022-10-03T20:29:18.635Z,13.86
2022-10-03T20:31:51.794Z,13.83
2022-10-03T20:34:21.941Z,13.94
2022-10-03T20:36:55.350Z,13.73
2022-10-03T20:39:28.451Z,13.91
2022-10-03T20:42:00.626Z,13.89
2022-10-03T20:47:48.791Z,13.97
2022-10-03T20:50:47.094Z,13.89
2022-10-03T20:53:23.442Z,13.79
2022-10-03T20:55:56.366Z,13.75
2022-10-03T20:58:38.191Z,13.94
2022-10-03T21:01:14.834Z,13.84
2022-10-03T21:03:47.926Z,13.79
2022-10-03T21:06:26.775Z,13.84
2022-10-03T21:08:56.443Z,13.96
2022-10-03T21:11:30.142Z,13.83
2022-10-03T21:14:02.785Z,13.56
2022-10-03T21:16:34.580Z,13.80
2022-10-03T21:19:04.461Z,13.95
2022-10-03T21:21:42.364Z,14.14
2022-10-03T21:24:15.734Z,14.13
2022-10-03T21:27:05.787Z,13.93
2022-10-03T21:29:37.769Z,14.02
2022-10-03T21:32:23.054Z,14.23
2022-10-03T21:35:10.613Z,14.20
2022-10-03T21:38:12.481Z,14.28
2022-10-03T21:41:03.791Z,14.21
2022-10-03T21:43:33.026Z,14.29
2022-10-03T21:45:59.832Z,14.28
2022-10-03T21:48:26.525Z,14.17
2022-10-03T21:50:58.949Z,14.16
2022-10-03T21:53:28.012Z,14.30
2022-10-03T21:56:09.677Z,14.29
2022-10-03T21:59:12.930Z,14.35
2022-10-03T22:02:06.019Z,13.89
2022-10-03T22:04:49.719Z,14.24
2022-10-03T22:07:19.149Z,13.96
2022-10-03T22:09:51.097Z,14.31
2022-10-03T22:12:18.406Z,14.17
2022-10-03T22:15:05.996Z,14.34
2022-10-03T22:17:39.855Z,14.32
2022-10-03T22:20:23.080Z,14.27
2022-10-03T22:23:02.792Z,14.43
2022-10-03T22:26:06.599Z,14.36
2022-10-03T22:28:43.883Z,14.23
2022-10-03T22:31:10.496Z,14.32
2022-10-03T22:33:54.873Z,14.48
2022-10-03T22:36:22.184Z,14.20
2022-10-03T22:38:51.642Z,14.48
2022-10-03T22:41:27.076Z,14.47
2022-10-03T22:43:56.720Z,14.15
2022-10-03T22:46:27.623Z,14.22
2022-10-03T22:49:08.506Z,14.15
2022-10-03T22:51:40.660Z,14.02
2022-10-03T22:54:12.950Z,14.03
2022-10-03T22:56:52.853Z,14.50
2022-10-03T22:59:32.147Z,14.17
2022-10-03T23:02:04.306Z,14.58
2022-10-03T23:04:35.929Z,14.24
2022-10-03T23:07:16.824Z,14.12
2022-10-03T23:10:07.594Z,14.64
2022-10-03T23:12:42.092Z,14.09
2022-10-03T23:15:13.789Z,14.48
2022-10-03T23:17:59.156Z,14.53
2022-10-03T23:20:47.512Z,14.71
2022-10-03T23:23:42.644Z,14.40
2022-10-03T23:26:44.714Z,14.53
2022-10-03T23:29:14.052Z,14.56
2022-10-03T23:32:00.297Z,14.40
2022-10-03T23:34:36.011Z,14.99
2022-10-03T23:37:11.344Z,14.81
2022-10-03T23:39:43.103Z,14.92
2022-10-03T23:42:17.568Z,14.76
2022-10-03T23:45:16.572Z,14.97
2022-10-03T23:48:10.286Z,14.95
2022-10-03T23:50:51.497Z,14.94
2022-10-03T23:53:24.748Z,14.90
2022-10-03T23:55:51.579Z,14.86
2022-10-03T23:58:25.152Z,14.93
